Tyler, TX (75701)

7:34 AM CDT on September 04, 2015 (GMT -0500)
Front and Broadway | | Change Station
CLOSE
Current Station
Personal Weather Station
Location: Tyler, TX
Elevation: 558 ft
Nearby Weather Stations

Elev 558 ft 32.35 °N, 95.30 °W | Updated 14 minutes ago

Clear
Clear
75.7 °F
Feels Like 75 °F
N
5.3
Wind Variable Wind from SW

Today
High -- | Low -- °F
--% Chance of Precip.
Yesterday
High -- | Low -- °F
Precip. -- in
6:58 AM 7:41 PM
Waning Gibbous, 60% visible
Pressure 29.94 in
Visibility 10.0 miles
Clouds Clear
Heat Index 75 °F
Dew Point 73 °F
Humidity 91%
Rainfall 0.00 in
Snow Depth Not available.
UV 0 out of 12
Pollen 9.00 out of 12
Air Quality Not available.
Flu Activity Not available.
METAR KTYR 041153Z 17004KT 10SM CLR 23/21 A2996 RMK AO2 SLP136 T02330211 10261 20233 51010
Pressure 29.94 in
Visibility 10.0 miles
Clouds Clear
Heat Index 75 °F
Dew Point 73 °F
Humidity 91%
Rainfall 0.00 in
Snow Depth Not available.
UV 0 out of 12
Pollen 9.00 out of 12
Air Quality Not available.
Flu Activity Not available.
METAR KTYR 041153Z 17004KT 10SM CLR 23/21 A2996 RMK AO2 SLP136 T02330211 10261 20233 51010

10-Day Weather Forecast

×

Almanac

Astronomy

Sep. 04, 2015 Rise Set
Actual Time
Civil Twilight
Nautical Twilight
Astronomical Twilight
Moon
Length of Visible Light
Length of Day
Tomorrow will be .
, % of the Moon is Illuminated

Today's Extremes

State Highs State Lows

Community

WunderPhotos

Upload Photos

1,852,170 photos uploaded!

WunderBlogs® & News

Nearby

Air Quality

  Air Quality AQ Index Pollutant
Not available.

Snow Depth

Station Depth Elevation

Earthquake Activity

City Distance Mag. Time & Date
Minimum magnitude displayed is 2.5.

Coastal Water Temperatures

Place Temperature

Stations

Nearby Weather Stations

Station Location Temp. Windchill Dew Point Humidity Wind Precip. Elev Updated Type